createdAt,value
2016-10-29T00:03:17.203Z,0
2016-10-29T00:08:16.829Z,0
2016-10-29T00:13:17.087Z,0
2016-10-29T00:18:17.031Z,0
2016-10-29T00:23:16.369Z,0
2016-10-29T00:28:16.965Z,0
2016-10-29T00:33:16.871Z,0
2016-10-29T00:38:16.537Z,0
2016-10-29T00:43:16.476Z,0
2016-10-29T00:48:16.441Z,0
2016-10-29T00:53:16.365Z,0
2016-10-29T00:58:16.622Z,0
2016-10-29T01:03:16.602Z,0
2016-10-29T01:08:16.217Z,0
2016-10-29T01:13:16.166Z,0
2016-10-29T01:18:16.106Z,0
2016-10-29T01:23:16.360Z,0
2016-10-29T01:28:15.994Z,0
2016-10-29T01:33:16.250Z,0
2016-10-29T01:38:16.200Z,0
2016-10-29T01:43:16.184Z,0
2016-10-29T01:48:15.782Z,0
2016-10-29T01:53:15.430Z,0
2016-10-29T01:58:15.684Z,0
2016-10-29T02:03:15.928Z,0
2016-10-29T02:08:15.606Z,0
2016-10-29T02:13:15.831Z,0
2016-10-29T02:18:15.468Z,0
2016-10-29T02:23:15.150Z,0
2016-10-29T02:28:15.371Z,0
2016-10-29T02:33:15.010Z,0
2016-10-29T02:38:15.557Z,0
2016-10-29T02:43:15.514Z,0
2016-10-29T02:48:15.462Z,0
2016-10-29T02:53:14.793Z,0
2016-10-29T02:58:15.335Z,0
2016-10-29T03:03:15.306Z,0
2016-10-29T03:08:14.943Z,0
2016-10-29T03:13:15.198Z,0
2016-10-29T03:18:15.153Z,0
2016-10-29T03:23:14.471Z,0
2016-10-29T03:28:15.029Z,0
2016-10-29T03:33:14.975Z,0
2016-10-29T03:38:14.617Z,0
2016-10-29T03:43:14.869Z,0
2016-10-29T03:48:14.496Z,0
2016-10-29T03:53:14.749Z,0
2016-10-29T03:58:14.393Z,0
2016-10-29T04:03:14.679Z,0
2016-10-29T04:08:14.284Z,0
2016-10-29T04:13:14.226Z,0
2016-10-29T04:18:14.469Z,0
2016-10-29T04:23:14.118Z,0
2016-10-29T04:28:14.362Z,0
2016-10-29T04:33:14.305Z,0
2016-10-29T04:38:14.284Z,0
2016-10-29T04:43:13.641Z,0
2016-10-29T04:48:13.838Z,0
2016-10-29T04:53:13.778Z,0
2016-10-29T04:58:13.722Z,0
2016-10-29T05:03:13.979Z,0
2016-10-29T05:08:13.915Z,0
2016-10-29T05:13:13.864Z,0
2016-10-29T05:18:13.822Z,0
2016-10-29T05:23:13.450Z,0
2016-10-29T05:28:13.706Z,0
2016-10-29T05:33:13.040Z,0
2016-10-29T05:38:13.626Z,0
2016-10-29T05:43:13.236Z,0
2016-10-29T05:48:13.470Z,0
2016-10-29T05:53:13.433Z,0
2016-10-29T05:58:13.364Z,0
2016-10-29T06:03:13.336Z,0
2016-10-29T06:08:13.242Z,0
2016-10-29T06:13:13.231Z,0
2016-10-29T06:18:12.836Z,0
2016-10-29T06:23:13.083Z,0
2016-10-29T06:28:12.727Z,0
2016-10-29T06:33:12.965Z,0
2016-10-29T06:38:12.911Z,0
2016-10-29T06:43:12.884Z,0
2016-10-29T06:48:12.499Z,0
2016-10-29T06:53:12.446Z,0
2016-10-29T06:58:12.383Z,0
2016-10-29T07:03:12.335Z,0
2016-10-29T07:08:12.294Z,0
2016-10-29T07:13:12.537Z,0
2016-10-29T07:18:12.165Z,0
2016-10-29T07:23:12.406Z,0
2016-10-29T07:28:12.354Z,0
2016-10-29T07:33:11.995Z,0
2016-10-29T07:38:11.949Z,0
2016-10-29T07:43:11.883Z,0
2016-10-29T07:48:11.840Z,0
2016-10-29T07:53:12.076Z,0
2016-10-29T07:58:11.717Z,0
2016-10-29T08:03:11.676Z,0
2016-10-29T08:08:11.611Z,0
2016-10-29T08:13:11.563Z,0
2016-10-29T08:18:11.211Z,0
2016-10-29T08:23:11.769Z,0
2016-10-29T08:28:11.400Z,0
2016-10-29T08:33:11.667Z,0
2016-10-29T08:38:11.609Z,0
2016-10-29T08:43:11.326Z,0
2016-10-29T08:48:11.511Z,0
2016-10-29T08:53:11.157Z,0
2016-10-29T08:58:11.415Z,0
2016-10-29T09:03:11.363Z,0
2016-10-29T09:08:11.291Z,0
2016-10-29T09:13:10.961Z,0
2016-10-29T09:18:11.196Z,0
2016-10-29T09:23:10.538Z,5
2016-10-29T09:28:10.782Z,5
2016-10-29T09:33:10.441Z,5
2016-10-29T09:38:10.689Z,5
2016-10-29T09:43:10.645Z,5
2016-10-29T09:48:10.895Z,5
2016-10-29T09:53:10.530Z,5
2016-10-29T09:58:10.207Z,5
2016-10-29T10:03:10.788Z,5
2016-10-29T10:08:10.389Z,5
2016-10-29T10:13:10.234Z,5
2016-10-29T10:18:10.317Z,5
2016-10-29T10:23:09.919Z,5
2016-10-29T10:28:10.195Z,0
2016-10-29T10:33:10.151Z,0
2016-10-29T10:38:10.075Z,0
2016-10-29T10:43:10.043Z,0
2016-10-29T10:48:10.289Z,0
2016-10-29T10:53:09.926Z,0
2016-10-29T10:58:09.884Z,0
2016-10-29T11:03:09.857Z,0
2016-10-29T11:08:10.088Z,5
2016-10-29T11:13:09.742Z,5
2016-10-29T11:18:09.996Z,5
2016-10-29T11:23:09.035Z,5
2016-10-29T11:28:09.586Z,0
2016-10-29T11:33:09.235Z,0
2016-10-29T11:38:09.500Z,0
2016-10-29T11:43:09.756Z,5
2016-10-29T11:48:09.414Z,5
2016-10-29T11:53:09.038Z,5
2016-10-29T11:58:09.288Z,5
2016-10-29T12:03:09.556Z,0
2016-10-29T12:08:09.506Z,5
2016-10-29T12:13:08.846Z,0
2016-10-29T12:18:08.788Z,0
2016-10-29T12:23:09.344Z,5
2016-10-29T12:28:08.996Z,0
2016-10-29T12:33:08.960Z,0
2016-10-29T12:38:09.200Z,0
2016-10-29T12:43:08.851Z,5
2016-10-29T12:48:09.121Z,5
2016-10-29T12:53:08.454Z,5
2016-10-29T12:58:09.037Z,10
2016-10-29T13:03:08.359Z,5
2016-10-29T13:08:08.917Z,10
2016-10-29T13:13:08.571Z,15
2016-10-29T13:18:08.524Z,15
2016-10-29T13:23:08.177Z,20
2016-10-29T13:28:08.491Z,30
2016-10-29T13:33:08.399Z,30
2016-10-29T13:38:08.643Z,25
2016-10-29T13:43:08.289Z,35
2016-10-29T13:48:08.262Z,25
2016-10-29T13:53:08.208Z,5
2016-10-29T13:58:08.459Z,10
2016-10-29T14:03:08.112Z,10
2016-10-29T14:08:08.405Z,5
2016-10-29T14:13:08.313Z,0
2016-10-29T14:18:08.278Z,0
2016-10-29T14:23:08.238Z,0
2016-10-29T14:28:08.178Z,5
2016-10-29T14:33:07.826Z,0
2016-10-29T14:38:07.472Z,0
2016-10-29T14:43:07.730Z,0
2016-10-29T14:48:07.680Z,0
2016-10-29T14:53:07.680Z,0
2016-10-29T14:58:07.584Z,0
2016-10-29T15:03:07.580Z,0
2016-10-29T15:08:07.484Z,0
2016-10-29T15:13:07.758Z,0
2016-10-29T15:18:07.401Z,0
2016-10-29T15:23:07.345Z,0
2016-10-29T15:28:07.598Z,0
2016-10-29T15:33:07.553Z,0
2016-10-29T15:38:07.509Z,0
2016-10-29T15:43:07.165Z,0
2016-10-29T15:48:06.810Z,0
2016-10-29T15:53:07.072Z,0
2016-10-29T15:58:07.021Z,0
2016-10-29T16:03:06.975Z,0
2016-10-29T16:08:07.230Z,0
2016-10-29T16:13:06.573Z,0
2016-10-29T16:18:07.140Z,0
2016-10-29T16:23:06.818Z,0
2016-10-29T16:28:07.054Z,0
2016-10-29T16:33:06.390Z,0
2016-10-29T16:38:06.957Z,0
2016-10-29T16:43:06.905Z,0
2016-10-29T16:48:05.963Z,0
2016-10-29T16:53:06.525Z,0
2016-10-29T16:58:06.471Z,0
2016-10-29T17:03:06.167Z,0
2016-10-29T17:08:06.690Z,0
2016-10-29T17:13:06.357Z,0
2016-10-29T17:18:06.299Z,0
2016-10-29T17:23:05.953Z,0
2016-10-29T17:28:06.220Z,0
2016-10-29T17:33:06.494Z,0
2016-10-29T17:38:06.423Z,0
2016-10-29T17:43:05.767Z,0
2016-10-29T17:48:05.424Z,0
2016-10-29T17:53:05.976Z,0
2016-10-29T17:58:05.624Z,0
2016-10-29T18:03:05.888Z,0
2016-10-29T18:08:05.544Z,0
2016-10-29T18:13:05.200Z,0
2016-10-29T18:18:05.446Z,0
2016-10-29T18:23:06.021Z,0
2016-10-29T18:28:05.358Z,0
2016-10-29T18:33:05.320Z,0
2016-10-29T18:38:05.332Z,0
2016-10-29T18:43:05.546Z,0
2016-10-29T18:48:05.492Z,0
2016-10-29T18:53:05.748Z,0
2016-10-29T18:58:05.413Z,0
2016-10-29T19:03:05.688Z,0
2016-10-29T19:08:05.310Z,0
2016-10-29T19:13:05.272Z,0
2016-10-29T19:18:05.580Z,0
2016-10-29T19:23:05.224Z,0
2016-10-29T19:28:05.484Z,0
2016-10-29T19:33:04.788Z,0
2016-10-29T19:38:05.347Z,0
2016-10-29T19:43:04.389Z,0
2016-10-29T19:48:04.664Z,0
2016-10-29T19:53:05.210Z,0
2016-10-29T19:58:04.617Z,0
2016-10-29T20:03:04.827Z,0
2016-10-29T20:08:05.088Z,0
2016-10-29T20:13:04.732Z,0
2016-10-29T20:18:04.393Z,0
2016-10-29T20:23:04.656Z,0
2016-10-29T20:28:04.594Z,0
2016-10-29T20:33:04.869Z,0
2016-10-29T20:38:04.508Z,0
2016-10-29T20:43:04.469Z,0
2016-10-29T20:48:04.745Z,0
2016-10-29T20:53:04.381Z,0
2016-10-29T20:58:04.041Z,0
2016-10-29T21:03:04.300Z,0
2016-10-29T21:08:04.557Z,0
2016-10-29T21:13:04.195Z,0
2016-10-29T21:18:04.148Z,0
2016-10-29T21:23:04.413Z,0
2016-10-29T21:28:04.059Z,0
2016-10-29T21:33:03.709Z,0
2016-10-29T21:38:03.981Z,0
2016-10-29T21:43:03.615Z,0
2016-10-29T21:48:03.888Z,0
2016-10-29T21:53:04.141Z,0
2016-10-29T21:58:03.788Z,0
2016-10-29T22:03:04.041Z,0
2016-10-29T22:08:03.724Z,0
2016-10-29T22:13:03.948Z,0
2016-10-29T22:18:03.284Z,0
2016-10-29T22:23:03.840Z,0
2016-10-29T22:28:03.801Z,0
2016-10-29T22:33:03.470Z,0
2016-10-29T22:38:03.400Z,0
2016-10-29T22:43:03.334Z,0
2016-10-29T22:48:02.679Z,0
2016-10-29T22:53:02.942Z,0
2016-10-29T22:58:03.496Z,0
2016-10-29T23:03:03.138Z,0
2016-10-29T23:08:03.396Z,0
2016-10-29T23:13:03.346Z,0
2016-10-29T23:18:03.001Z,0
2016-10-29T23:23:03.248Z,0
2016-10-29T23:28:02.906Z,0
2016-10-29T23:33:02.880Z,0
2016-10-29T23:38:02.494Z,0
2016-10-29T23:43:03.047Z,0
2016-10-29T23:48:02.996Z,0
2016-10-29T23:53:02.335Z,0
2016-10-29T23:58:02.583Z,0
